KTCL/TCL METAR and TAF weather

Enter ICAO airport designator
Station Type Date Time Source
KTCL METAR 2020/11/28 18:53 UTC NOAA

KTCL 281853Z 36006KT 10SM CLR 17/09 A3011 RMK AO2 SLP195 T01720094


Station Type Date Time Source
KTCL Decoded METAR 2020/11/28 18:53 UTC NOAA

TUSCALOOSA REGIONAL AIRPORT, AL, United States (KTCL) 33-13N 087-37W
Nov 28, 2020 - 01:53 PM EST / 2020.11.28 1853 UTC
Wind: from the N (360 degrees) at 7 MPH (6 KT):0
Visibility: 10 mile(s):0
Sky conditions: clear
Temperature: 63.0 F (17.2 C)
Dew Point: 48.9 F (9.4 C)
Relative Humidity: 60%
Pressure (altimeter): 30.11 in. Hg (1019 hPa)
ob: KTCL 281853Z 36006KT 10SM CLR 17/09 A3011 RMK AO2 SLP195 T01720094
cycle: 19

Station Type Date Time Source
KTCL TAF 2020/11/28 18:22 UTC NOAA

TAF KTCL 281720Z 2818/2918 02008KT P6SM SCT040 OVC250
FM291200 01005KT P6SM OVC030 PROB30 2912/2918 4SM SHRA BR OVC020

Example: see airport list